Time;durP1;ratioP1;P1;durP2;ratioP2;P2;SDS_P1;SDS_P2;PMS_P1;PMS_P2;Temp;Humidity;BMP_temperature;BMP_pressure;BME280_temperature;BME280_humidity;BME280_pressure;Samples;Min_cycle;Max_cycle;Signal;HPM_P1;HPM_P2
2023/06/26 00:00:49;;;;;;;;;;;;;;;27.06;42.81;100172.41;41794510;28;20320;-75
2023/06/26 00:20:50;;;;;;;;;;;;;;;26.91;43.13;100176.66;41761693;28;20899;-77
2023/06/26 00:40:52;;;;;;;;;;;;;;;26.83;43.55;100174.78;41780805;28;19972;-76
2023/06/26 01:00:52;;;;;;;;;;;;;;;26.73;43.78;100179.41;41779796;28;19931;-76
2023/06/26 01:20:53;;;;;;;;;;;;;;;26.69;44.06;100157.63;41781791;28;20023;-76
2023/06/26 01:40:53;;;;;;;;;;;;;;;26.61;44.20;100149.63;41772180;28;19951;-76
2023/06/26 02:00:54;;;;;;;;;;;;;;;26.49;44.72;100147.28;41773918;28;19929;-77
2023/06/26 02:20:54;;;;;;;;;;;;;;;26.45;44.52;100169.84;41768103;28;19931;-77
2023/06/26 02:40:54;;;;;;;;;;;;;;;26.39;44.76;100169.63;41741028;28;19932;-75
2023/06/26 03:00:56;;;;;;;;;;;;;;;26.33;44.68;100177.25;41736734;28;19929;-77
2023/06/26 03:20:56;;;;;;;;;;;;;;;26.28;45.03;100182.19;41764726;28;19983;-75
2023/06/26 03:40:57;;;;;;;;;;;;;;;26.25;44.68;100189.63;41754473;28;19928;-76
2023/06/26 04:00:57;;;;;;;;;;;;;;;26.17;44.55;100188.59;41778862;28;19936;-76
2023/06/26 04:21:08;;;;;;;;;;;;;;;26.16;44.67;100197.53;41767607;28;20301;-75
2023/06/26 04:41:08;;;;;;;;;;;;;;;26.15;44.60;100208.31;41750514;28;20025;-77
2023/06/26 05:01:10;;;;;;;;;;;;;;;26.10;44.66;100203.47;41769506;28;20424;-76
2023/06/26 05:21:10;;;;;;;;;;;;;;;26.14;44.80;100206.66;41738002;28;19933;-77
2023/06/26 05:41:10;;;;;;;;;;;;;;;26.11;44.86;100207.81;41737293;28;19947;-76
2023/06/26 06:01:11;;;;;;;;;;;;;;;25.95;45.20;100215.59;41763323;28;19932;-77
2023/06/26 06:21:11;;;;;;;;;;;;;;;25.87;45.08;100203.94;41738637;28;19932;-76
2023/06/26 06:41:12;;;;;;;;;;;;;;;25.72;44.42;100200.19;41763188;28;19936;-76
2023/06/26 07:01:13;;;;;;;;;;;;;;;25.72;44.26;100210.81;41726870;28;19936;-76
2023/06/26 07:21:13;;;;;;;;;;;;;;;25.80;43.99;100200.25;41778720;28;20381;-77
2023/06/26 07:41:15;;;;;;;;;;;;;;;25.89;43.43;100194.03;41659899;28;20538;-77
2023/06/26 08:01:16;;;;;;;;;;;;;;;25.92;42.99;100206.13;41669095;28;19931;-76
2023/06/26 08:21:16;;;;;;;;;;;;;;;26.06;42.35;100204.72;41758910;28;20001;-77
2023/06/26 08:41:16;;;;;;;;;;;;;;;26.15;41.24;100192.41;41759173;28;19932;-76
2023/06/26 09:01:17;;;;;;;;;;;;;;;25.75;40.94;100199.88;41751826;28;19925;-75
2023/06/26 09:21:17;;;;;;;;;;;;;;;26.09;41.88;100187.72;41732726;28;19932;-75
2023/06/26 09:41:18;;;;;;;;;;;;;;;26.29;42.45;100183.00;41740617;28;19929;-79
2023/06/26 10:01:18;;;;;;;;;;;;;;;26.47;41.49;100178.47;41736637;28;20035;-81
2023/06/26 10:21:20;;;;;;;;;;;;;;;26.59;41.77;100152.47;41761596;28;19928;-79
2023/06/26 10:41:25;;;;;;;;;;;;;;;26.78;40.69;100142.56;41768483;28;20503;-81
2023/06/26 11:01:26;;;;;;;;;;;;;;;26.87;40.07;100146.09;41751473;28;19925;-79
2023/06/26 11:21:27;;;;;;;;;;;;;;;26.94;40.09;100139.13;41779645;28;20043;-80
2023/06/26 11:41:30;;;;;;;;;;;;;;;27.05;40.75;100128.22;41778759;28;19932;-80
2023/06/26 12:01:34;;;;;;;;;;;;;;;27.11;40.42;100118.72;41790476;28;19951;-81
2023/06/26 12:21:37;;;;;;;;;;;;;;;27.32;41.23;100113.75;41789344;28;20040;-81
2023/06/26 12:41:54;;;;;;;;;;;;;;;27.38;41.30;100108.75;41786195;28;19924;-81
2023/06/26 13:01:54;;;;;;;;;;;;;;;27.28;40.81;100101.81;41754926;28;19933;-81
2023/06/26 13:21:55;;;;;;;;;;;;;;;27.37;40.27;100096.47;41805808;28;20409;-81
2023/06/26 13:41:55;;;;;;;;;;;;;;;27.57;39.37;100076.53;41818335;28;19925;-80
2023/06/26 14:01:55;;;;;;;;;;;;;;;27.52;39.53;100068.25;41778073;28;19925;-75
2023/06/26 14:21:56;;;;;;;;;;;;;;;27.40;39.87;100062.41;41780996;28;20405;-76
2023/06/26 14:42:02;;;;;;;;;;;;;;;27.39;41.07;100063.44;41762142;28;19983;-76
2023/06/26 15:02:02;;;;;;;;;;;;;;;27.37;40.78;100056.59;41748221;28;20333;-77
2023/06/26 15:22:08;;;;;;;;;;;;;;;27.56;40.60;100037.66;41782708;28;19933;-76
2023/06/26 15:42:09;;;;;;;;;;;;;;;27.62;40.89;100025.50;41805418;28;19931;-75
2023/06/26 16:02:09;;;;;;;;;;;;;;;27.63;40.20;100021.84;41791478;28;19979;-76
2023/06/26 16:22:09;;;;;;;;;;;;;;;27.64;40.24;100011.03;41755576;28;19975;-76
2023/06/26 16:42:11;;;;;;;;;;;;;;;27.70;40.93;100003.38;41768035;28;19928;-76
2023/06/26 17:02:13;;;;;;;;;;;;;;;27.74;40.01;99999.38;41761022;28;19990;-76
2023/06/26 17:22:14;;;;;;;;;;;;;;;27.74;40.22;100004.69;41764319;28;20122;-76
2023/06/26 17:42:14;;;;;;;;;;;;;;;27.74;38.29;100002.03;41736708;28;19982;-76
2023/06/26 18:02:14;;;;;;;;;;;;;;;27.62;37.35;99993.59;41755445;28;19936;-77
2023/06/26 18:22:16;;;;;;;;;;;;;;;27.48;37.68;100011.91;41755355;28;19925;-77
2023/06/26 18:42:19;;;;;;;;;;;;;;;27.33;38.32;100024.19;41753944;28;19936;-77
2023/06/26 19:02:19;;;;;;;;;;;;;;;27.11;38.89;100049.63;41760800;28;19925;-76
2023/06/26 19:22:20;;;;;;;;;;;;;;;26.93;39.80;100057.78;41785546;28;20056;-77
2023/06/26 19:42:20;;;;;;;;;;;;;;;26.80;40.45;100060.91;41780376;28;19990;-76
2023/06/26 20:02:20;;;;;;;;;;;;;;;26.64;41.19;100064.34;41801955;28;20016;-78
2023/06/26 20:22:21;;;;;;;;;;;;;;;26.35;42.29;100062.94;41773766;28;20011;-75
2023/06/26 20:42:28;;;;;;;;;;;;;;;26.42;43.10;100063.94;41691165;28;19991;-77
2023/06/26 21:02:28;;;;;;;;;;;;;;;26.45;42.57;100070.75;41701712;28;19943;-79
2023/06/26 21:22:30;;;;;;;;;;;;;;;26.39;43.16;100058.13;41770072;28;20294;-80
2023/06/26 21:42:33;;;;;;;;;;;;;;;26.03;43.66;100069.75;41765451;28;19925;-77
2023/06/26 22:02:33;;;;;;;;;;;;;;;25.86;44.39;100048.44;41769969;28;19949;-77
2023/06/26 22:22:34;;;;;;;;;;;;;;;25.62;45.56;100049.16;41751140;28;19935;-76
2023/06/26 22:42:37;;;;;;;;;;;;;;;25.46;46.64;100052.50;41753239;28;19978;-75
2023/06/26 23:02:38;;;;;;;;;;;;;;;25.23;47.48;100045.03;41753572;28;19956;-77
2023/06/26 23:22:42;;;;;;;;;;;;;;;25.10;48.82;100026.88;41761128;28;19936;-78
2023/06/26 23:42:42;;;;;;;;;;;;;;;24.92;49.49;100018.13;41765704;28;19951;-76
